Flight Track Log - Related Links

Times and Time Zones

All times are in EDT time to prevent confusion due to time zone crossing. See the UCA4838 flight status page for this flight to view local times or setup timezone preferences in your user account.

Time Position Orientation Groundspeed Altitude Reporting Facility
EDT Latitude Longitude Course Direction KTS MPH feet Rate Location/Type
Thu 06:02:17 AM 43.1261 -77.6761 124° Southeast 139 160 1,100  Level Cleveland Center
Thu 06:03:23 AM 43.1542 -77.6292 51° Northeast 161 185 2,300 1,134 Climbing Cleveland Center
Thu 06:04:24 AM 43.1319 -77.5789 121° Southeast 168 193 3,500 1,075 Climbing Cleveland Center
Thu 06:05:09 AM 43.1142 -77.5428 124° Southeast 180 207 4,200 1,314 Climbing Cleveland Center
Thu 06:06:09 AM 43.0858 -77.4875 125° Southeast 185 213 5,800 1,450 Climbing Cleveland Center
Thu 06:07:00 AM 42.8812 -77.1289 124° Southeast  Level FlightAware Approximate
Thu 06:07:09 AM 43.0572 -77.4319 125° Southeast 185 213 7,100  Level Cleveland Center
Thu 06:08:09 AM 43.0286 -77.3767 125° Southeast 185 213 8,400 1,200 Climbing Cleveland Center
Thu 06:09:09 AM 42.9975 -77.3158 125° Southeast 185 213 9,500 1,000 Climbing Cleveland Center
Thu 06:10:09 AM 42.9644 -77.2522 125° Southeast 190 219 10,400 900 Climbing Cleveland Center
Thu 06:11:09 AM 42.9294 -77.1889 127° Southeast 195 224 11,300 945 Climbing Cleveland Center
Thu 06:12:54 AM 42.8642 -77.0656 126° Southeast 214 246 13,000 626 Climbing New York Center
Thu 06:13:52 AM 42.8242 -76.9911 126° Southeast 224 258 13,000 -50 Level New York Center
Thu 06:14:53 AM 42.7850 -76.9056 122° Southeast 254 292 12,900 -50 Descending New York Center
Thu 06:15:53 AM 42.7458 -76.8142 120° Southeast 266 306 12,900 900 Level New York Center
Thu 06:16:53 AM 42.7125 -76.7350 120° Southeast 266 306 14,700 1,041 Climbing New York Center
Thu 06:17:54 AM 42.6786 -76.6614 122° Southeast 253 291 15,000 143 Climbing New York Center
Thu 06:18:59 AM 42.6378 -76.5753 123° Southeast 240 276 15,000  Level Boston Center
Thu 06:19:59 AM 42.6031 -76.4969 121° Southeast 254 292 15,000  Level Boston Center
Thu 06:20:59 AM 42.5625 -76.4097 122° Southeast 266 306 15,000 450 Level Boston Center
Thu 06:21:59 AM 42.5278 -76.3283 120° Southeast 266 306 15,900 850 Climbing Boston Center
Thu 06:22:59 AM 42.4947 -76.2558 122° Southeast 243 280 16,700 550 Climbing Boston Center
Thu 06:23:59 AM 42.4636 -76.1892 122° Southeast 225 259 17,000 150 Climbing Boston Center
Thu 06:24:59 AM 42.4286 -76.1142 122° Southeast 220 253 17,000  Level Boston Center
Thu 06:25:59 AM 42.3894 -76.0275 121° Southeast 239 275 17,000  Level Boston Center
Thu 06:26:59 AM 42.3544 -75.9494 121° Southeast 244 281 17,000  Level Boston Center
Thu 06:27:59 AM 42.3133 -75.8600 122° Southeast 262 302 17,000  Level Boston Center
Thu 06:28:59 AM 42.2725 -75.7681 121° Southeast 262 302 17,000  Level Boston Center
Thu 06:29:59 AM 42.2392 -75.6933 121° Southeast 262 302 17,000  Level Boston Center
Thu 06:30:59 AM 42.2000 -75.6044 121° Southeast 262 302 17,000  Level Boston Center
Thu 06:31:59 AM 42.1606 -75.5239 123° Southeast 262 302 17,000 50 Level Boston Center
Thu 06:32:59 AM 42.1211 -75.4408 123° Southeast 262 302 17,100 50 Climbing Boston Center
Thu 06:33:59 AM 42.0814 -75.3550 122° Southeast 262 302 17,100 -200 Level Boston Center
Thu 06:34:59 AM 42.0442 -75.2639 119° Southeast 267 307 16,700 -550 Descending Boston Center
Thu 06:35:59 AM 42.0092 -75.1672 116° Southeast 277 319 16,000 -750 Descending Boston Center
Thu 06:36:59 AM 41.9639 -75.0564 119° Southeast 298 343 15,200 -450 Descending Boston Center
Thu 06:37:59 AM 41.9303 -74.9683 117° Southeast 298 343 15,100 -45 Descending Boston Center
Thu 06:39:11 AM 41.8850 -74.8467 117° Southeast 285 328 15,100 -182 Level Boston Center
Thu 06:40:11 AM 41.8475 -74.7506 118° Southeast 285 328 14,700 -1,000 Descending Boston Center
Thu 06:41:11 AM 41.8033 -74.6569 122° Southeast 290 334 13,100 -1,700 Descending Boston Center
Thu 06:42:11 AM 41.7286 -74.6461 174° South 261 300 11,300 -1,750 Descending Boston Center
Thu 06:43:11 AM 41.6519 -74.6267 169° South 269 310 9,600 -1,600 Descending Boston Center
Thu 06:44:11 AM 41.5750 -74.6183 175° South 280 322 8,100 -1,350 Descending Boston Center
Thu 06:45:11 AM 41.5086 -74.6050 171° South 272 313 6,900 -1,000 Descending Boston Center
Thu 06:46:11 AM 41.4314 -74.5969 176° South 265 305 6,100 -407 Descending Boston Center
Thu 06:47:09 AM 41.3667 -74.6000 182° South 245 282 6,100 -51 Level New York TRACON
Thu 06:48:09 AM 41.3000 -74.6167 191° South 249 287 6,000 -100 Descending New York TRACON
Thu 06:49:09 AM 41.2500 -74.5500 135° Southeast 244 281 5,900 -316 Descending New York TRACON
Thu 06:50:03 AM 41.2000 -74.5000 143° Southeast 252 290 5,400 -474 Descending New York TRACON
Thu 06:51:03 AM 41.1500 -74.4333 135° Southeast 256 295 5,000 -200 Descending New York TRACON
Thu 06:52:03 AM 41.1000 -74.3667 135° Southeast 248 285 5,000  Level New York TRACON
Thu 06:52:57 AM 41.0500 -74.3167 143° Southeast 245 282 5,000  Level New York TRACON
Thu 06:53:51 AM 41.0167 -74.2667 131° Southeast 240 276 5,000 -421 Level New York TRACON
Thu 06:54:51 AM 40.9667 -74.2000 135° Southeast 225 259 4,200 -500 Descending New York TRACON
Thu 06:55:51 AM 40.9333 -74.1333 123° Southeast 223 257 4,000 -600 Descending New York TRACON
Thu 06:56:51 AM 40.8833 -74.1000 153° Southeast 224 258 3,000 -1,000 Descending New York TRACON

Login

Don't have an account? Register now (free) for customized features, flight alerts, and more!